Time;durP1;ratioP1;P1;durP2;ratioP2;P2;SDS_P1;SDS_P2;PMS_P1;PMS_P2;Temp;Humidity;BMP_temperature;BMP_pressure;BME280_temperature;BME280_humidity;BME280_pressure;Samples;Min_cycle;Max_cycle;Signal;HPM_P1;HPM_P2
2022/10/05 00:01:26;;;;;;;9.10;5.10;;;;;;;;;;12956215;22;20012;-75
2022/10/05 00:06:30;;;;;;;6.68;4.47;;;;;;;;;;12982947;22;20416;-77
2022/10/05 00:11:30;;;;;;;5.65;4.63;;;;;;;;;;12954772;22;20027;-76
2022/10/05 00:16:31;;;;;;;6.75;4.32;;;;;;;;;;12980600;22;20031;-76
2022/10/05 00:21:32;;;;;;;9.70;4.83;;;;;;;;;;12978915;22;20336;-76
2022/10/05 00:26:32;;;;;;;7.40;5.00;;;;;;;;;;12979938;22;20027;-77
2022/10/05 00:31:34;;;;;;;7.88;4.78;;;;;;;;;;12977765;22;20034;-77
2022/10/05 00:36:36;;;;;;;8.07;4.47;;;;;;;;;;12978033;22;20051;-78
2022/10/05 00:41:48;;;;;;;6.30;4.88;;;;;;;;;;12977908;22;20181;-78
2022/10/05 00:46:49;;;;;;;6.05;4.40;;;;;;;;;;12951023;22;20487;-77
2022/10/05 00:52:00;;;;;;;6.93;4.50;;;;;;;;;;12977656;22;20083;-77
2022/10/05 00:57:06;;;;;;;7.93;4.75;;;;;;;;;;12977387;22;20262;-76
2022/10/05 01:02:11;;;;;;;8.70;4.47;;;;;;;;;;12978679;22;20012;-76
2022/10/05 01:07:24;;;;;;;5.55;4.10;;;;;;;;;;12949864;22;20423;-78
2022/10/05 01:12:25;;;;;;;;;;;;;;;;;;12950165;22;20038;-76
2022/10/05 01:17:49;;;;;;;8.35;4.50;;;;;;;;;;12977907;22;19921;-76
2022/10/05 01:22:49;;;;;;;6.67;4.80;;;;;;;;;;12881290;22;20374;-78
2022/10/05 01:27:50;;;;;;;5.53;4.27;;;;;;;;;;12981524;22;20060;-76
2022/10/05 01:32:58;;;;;;;5.25;4.63;;;;;;;;;;12957644;22;20527;-76
2022/10/05 01:38:07;;;;;;;6.65;4.63;;;;;;;;;;12963404;22;20023;-76
2022/10/05 01:43:27;;;;;;;5.05;3.92;;;;;;;;;;12990672;22;20250;-76
2022/10/05 01:48:46;;;;;;;7.00;4.65;;;;;;;;;;12967631;22;20008;-75
2022/10/05 01:54:05;;;;;;;5.75;4.20;;;;;;;;;;12994559;22;20106;-76
2022/10/05 01:59:26;;;;;;;6.90;4.70;;;;;;;;;;12955939;22;20322;-77
2022/10/05 02:04:30;;;;;;;5.22;4.10;;;;;;;;;;12955184;22;20315;-76
2022/10/05 02:09:39;;;;;;;7.63;4.85;;;;;;;;;;12954694;22;20018;-77
2022/10/05 02:14:44;;;;;;;6.95;4.90;;;;;;;;;;12980725;22;20015;-76
2022/10/05 02:19:50;;;;;;;8.27;4.60;;;;;;;;;;12981932;22;20050;-77
2022/10/05 02:25:04;;;;;;;7.47;5.03;;;;;;;;;;12954425;22;20352;-76
2022/10/05 02:30:05;;;;;;;7.88;5.03;;;;;;;;;;12953327;22;20340;-74
2022/10/05 02:35:15;;;;;;;7.75;4.90;;;;;;;;;;12929738;22;20023;-79
2022/10/05 02:40:22;;;;;;;6.68;4.88;;;;;;;;;;12929629;22;20039;-78
2022/10/05 02:45:22;;;;;;;8.52;4.88;;;;;;;;;;12983262;22;20008;-78
2022/10/05 02:50:25;;;;;;;9.95;4.70;;;;;;;;;;12930753;22;20027;-78
2022/10/05 02:55:31;;;;;;;6.85;4.22;;;;;;;;;;12955541;22;20119;-78
2022/10/05 03:00:38;;;;;;;5.38;4.18;;;;;;;;;;12982596;22;20081;-78
2022/10/05 03:05:42;;;;;;;7.70;4.93;;;;;;;;;;12979374;22;19999;-84
2022/10/05 03:10:59;;;;;;;6.20;4.32;;;;;;;;;;13018220;22;20035;-79
2022/10/05 03:16:00;;;;;;;6.53;4.40;;;;;;;;;;13018134;22;20146;-81
2022/10/05 03:21:04;;;;;;;7.72;4.95;;;;;;;;;;12990622;22;20094;-78
2022/10/05 03:26:05;;;;;;;;;;;;;;;;;;12955326;22;20069;-78
2022/10/05 03:31:17;;;;;;;7.40;4.50;;;;;;;;;;12953477;22;19917;-78
2022/10/05 03:36:21;;;;;;;9.13;5.30;;;;;;;;;;12951754;22;20020;-77
2022/10/05 03:41:57;;;;;;;9.02;5.60;;;;;;;;;;12951554;22;20023;-77
2022/10/05 03:47:01;;;;;;;6.63;4.57;;;;;;;;;;12791101;22;20012;-76
2022/10/05 03:52:10;;;;;;;7.50;5.38;;;;;;;;;;12951390;22;20483;-76
2022/10/05 03:57:25;;;;;;;7.38;5.15;;;;;;;;;;12952308;22;20038;-79
2022/10/05 04:02:29;;;;;;;8.05;5.50;;;;;;;;;;12953797;22;20019;-78
2022/10/05 04:07:42;;;;;;;9.40;5.32;;;;;;;;;;12980674;22;20034;-78
2022/10/05 04:12:47;;;;;;;7.35;5.65;;;;;;;;;;12953322;22;20347;-76
2022/10/05 04:17:53;;;;;;;6.90;4.95;;;;;;;;;;12953087;22;20016;-78
2022/10/05 04:23:09;;;;;;;8.25;5.70;;;;;;;;;;12979894;22;20466;-76
2022/10/05 04:28:22;;;;;;;7.03;4.72;;;;;;;;;;12957757;22;20069;-77
2022/10/05 04:33:26;;;;;;;6.85;5.05;;;;;;;;;;12955287;22;20378;-74
2022/10/05 04:38:45;;;;;;;11.70;5.82;;;;;;;;;;12950800;22;20027;-77
2022/10/05 04:43:52;;;;;;;7.10;5.20;;;;;;;;;;12951689;22;20090;-77
2022/10/05 04:49:01;;;;;;;7.97;4.85;;;;;;;;;;12925434;22;20042;-78
2022/10/05 04:54:34;;;;;;;7.43;5.55;;;;;;;;;;12953025;22;20462;-80
2022/10/05 05:00:08;;;;;;;8.40;5.55;;;;;;;;;;12927119;22;20051;-80
2022/10/05 05:05:23;;;;;;;9.50;5.63;;;;;;;;;;12949793;22;20030;-78
2022/10/05 05:10:48;;;;;;;17.10;7.10;;;;;;;;;;12979250;22;20478;-77
2022/10/05 05:15:49;;;;;;;7.97;5.75;;;;;;;;;;12950869;22;21967;-77
2022/10/05 05:20:54;;;;;;;8.13;5.70;;;;;;;;;;12979152;22;20035;-77
2022/10/05 05:26:03;;;;;;;9.05;5.55;;;;;;;;;;12978436;22;20102;-77
2022/10/05 05:31:11;;;;;;;8.35;5.88;;;;;;;;;;12950418;22;20103;-77
2022/10/05 05:36:23;;;;;;;7.75;6.15;;;;;;;;;;12978661;22;20031;-77
2022/10/05 05:41:34;;;;;;;12.25;7.78;;;;;;;;;;12949161;22;20023;-77
2022/10/05 05:46:36;;;;;;;10.85;7.65;;;;;;;;;;12951795;22;20726;-78
2022/10/05 05:51:42;;;;;;;13.97;8.40;;;;;;;;;;12951446;22;20007;-76
2022/10/05 05:56:48;;;;;;;15.10;9.13;;;;;;;;;;12978709;22;20019;-80
2022/10/05 06:01:54;;;;;;;11.75;8.23;;;;;;;;;;12983150;22;20016;-79
2022/10/05 06:07:01;;;;;;;15.27;9.20;;;;;;;;;;12956861;22;20030;-82
2022/10/05 06:12:10;;;;;;;11.70;8.77;;;;;;;;;;12984513;22;20118;-78
2022/10/05 06:17:22;;;;;;;12.52;9.43;;;;;;;;;;12961089;22;20024;-77
2022/10/05 06:22:35;;;;;;;14.63;8.80;;;;;;;;;;12979627;22;20008;-73
2022/10/05 06:27:56;;;;;;;15.13;9.38;;;;;;;;;;12992745;22;19995;-78
2022/10/05 06:33:11;;;;;;;14.55;9.40;;;;;;;;;;12961474;22;20016;-77
2022/10/05 06:38:31;;;;;;;12.60;8.13;;;;;;;;;;13000683;22;20105;-77
2022/10/05 06:43:35;;;;;;;13.23;8.57;;;;;;;;;;13042092;22;20003;-75
2022/10/05 06:49:09;;;;;;;12.30;8.77;;;;;;;;;;13047430;22;20051;-76
2022/10/05 06:54:35;;;;;;;;;;;;;;;;;;13002469;22;20012;-74
2022/10/05 06:59:41;;;;;;;14.70;9.35;;;;;;;;;;12952519;22;20244;-76
2022/10/05 07:04:52;;;;;;;14.38;8.45;;;;;;;;;;12980362;22;20043;-79
2022/10/05 07:10:16;;;;;;;12.80;8.18;;;;;;;;;;12930396;22;20023;-79
2022/10/05 07:15:26;;;;;;;13.55;9.27;;;;;;;;;;12954796;22;20039;-77
2022/10/05 07:20:29;;;;;;;14.75;9.77;;;;;;;;;;12980089;22;20015;-79
2022/10/05 07:25:49;;;;;;;17.05;10.65;;;;;;;;;;12954359;22;20046;-81
2022/10/05 07:30:54;;;;;;;15.27;10.00;;;;;;;;;;12982948;22;20114;-80
2022/10/05 07:42:08;;;;;;;14.18;10.18;;;;;;;;;;12998044;22;20027;-80
2022/10/05 07:47:23;;;;;;;14.85;9.85;;;;;;;;;;12973844;22;20007;-79
2022/10/05 07:52:29;;;;;;;20.77;11.65;;;;;;;;;;12965619;22;20086;-80
2022/10/05 07:57:46;;;;;;;16.05;10.48;;;;;;;;;;12966044;22;20440;-80
2022/10/05 08:02:53;;;;;;;19.60;11.50;;;;;;;;;;12953340;22;20549;-80
2022/10/05 08:08:05;;;;;;;17.45;11.85;;;;;;;;;;12952392;22;20093;-81
2022/10/05 08:13:26;;;;;;;21.15;12.20;;;;;;;;;;12979484;22;20022;-78
2022/10/05 08:18:39;;;;;;;14.90;11.18;;;;;;;;;;12958340;22;20070;-77
2022/10/05 08:23:41;;;;;;;17.13;11.18;;;;;;;;;;12979103;22;20011;-78
2022/10/05 08:29:06;;;;;;;15.02;10.85;;;;;;;;;;12978670;22;20020;-78
2022/10/05 08:34:09;;;;;;;16.35;11.70;;;;;;;;;;12940562;22;20054;-76
2022/10/05 08:39:16;;;;;;;15.15;11.05;;;;;;;;;;12952727;22;20027;-79
2022/10/05 08:44:35;;;;;;;15.60;10.73;;;;;;;;;;12979614;22;20026;-78
2022/10/05 08:49:48;;;;;;;16.73;11.68;;;;;;;;;;12980035;22;20011;-79
2022/10/05 08:54:55;;;;;;;13.50;10.18;;;;;;;;;;12982674;22;20008;-78
2022/10/05 09:00:02;;;;;;;13.25;10.20;;;;;;;;;;12968540;22;20173;-78
2022/10/05 09:05:12;;;;;;;13.48;10.20;;;;;;;;;;13018532;22;20067;-79
2022/10/05 09:10:31;;;;;;;10.98;9.30;;;;;;;;;;13041420;22;20002;-77
2022/10/05 09:15:50;;;;;;;14.60;10.30;;;;;;;;;;13016696;22;20007;-78
2022/10/05 09:20:54;;;;;;;13.43;10.32;;;;;;;;;;13015724;22;20012;-78
2022/10/05 09:26:04;;;;;;;12.68;9.95;;;;;;;;;;12985868;22;20445;-75
2022/10/05 09:31:20;;;;;;;12.07;9.25;;;;;;;;;;12954061;22;20022;-76
2022/10/05 09:36:31;;;;;;;11.73;9.52;;;;;;;;;;12953249;22;20016;-76
2022/10/05 09:41:50;;;;;;;11.75;10.13;;;;;;;;;;12982789;22;20016;-77
2022/10/05 09:47:12;;;;;;;13.68;9.77;;;;;;;;;;12984306;22;20008;-75
2022/10/05 09:52:24;;;;;;;13.63;9.40;;;;;;;;;;12982172;22;20439;-76
2022/10/05 09:57:31;;;;;;;14.07;9.43;;;;;;;;;;12953538;22;20047;-76
2022/10/05 10:02:58;;;;;;;10.68;8.70;;;;;;;;;;12980454;22;20472;-75
2022/10/05 10:08:04;;;;;;;12.75;9.15;;;;;;;;;;12904586;22;20475;-77
2022/10/05 10:13:15;;;;;;;11.90;9.27;;;;;;;;;;12953340;22;20090;-76
2022/10/05 10:18:22;;;;;;;10.95;9.20;;;;;;;;;;12980675;22;20007;-76
2022/10/05 10:23:32;;;;;;;9.80;8.15;;;;;;;;;;12980381;22;20008;-76
2022/10/05 10:28:39;;;;;;;12.35;8.20;;;;;;;;;;12952571;22;20012;-77
2022/10/05 10:34:00;;;;;;;12.07;7.80;;;;;;;;;;12979719;22;20089;-76
2022/10/05 10:39:07;;;;;;;7.82;7.03;;;;;;;;;;12949783;22;20027;-76
2022/10/05 10:44:22;;;;;;;7.60;6.55;;;;;;;;;;12952646;22;20138;-76
2022/10/05 10:49:41;;;;;;;8.52;6.72;;;;;;;;;;12979728;22;20061;-78
2022/10/05 10:54:45;;;;;;;8.32;7.18;;;;;;;;;;12980941;22;20080;-78
2022/10/05 10:59:49;;;;;;;8.70;6.55;;;;;;;;;;12951370;22;20106;-79
2022/10/05 11:05:08;;;;;;;7.68;6.30;;;;;;;;;;12953986;22;20073;-79
2022/10/05 11:10:18;;;;;;;8.10;6.05;;;;;;;;;;12980814;22;20123;-78
2022/10/05 11:15:25;;;;;;;8.10;6.15;;;;;;;;;;12981486;22;20035;-78
2022/10/05 11:20:32;;;;;;;8.27;6.30;;;;;;;;;;12953120;22;20077;-77
2022/10/05 11:25:51;;;;;;;6.25;5.38;;;;;;;;;;12996480;22;20046;-77
2022/10/05 11:30:57;;;;;;;7.03;5.68;;;;;;;;;;12989601;22;20000;-77
2022/10/05 11:36:07;;;;;;;6.20;5.60;;;;;;;;;;13013741;22;20016;-79
2022/10/05 11:41:27;;;;;;;7.57;5.35;;;;;;;;;;13017928;22;19992;-78
2022/10/05 11:46:40;;;;;;;5.13;4.63;;;;;;;;;;12993170;22;19999;-77
2022/10/05 11:52:01;;;;;;;5.78;4.85;;;;;;;;;;13045692;22;19995;-75
2022/10/05 11:57:06;;;;;;;5.22;4.68;;;;;;;;;;12966986;22;20337;-78
2022/10/05 12:02:26;;;;;;;6.03;5.07;;;;;;;;;;12984555;22;20011;-77
2022/10/05 12:07:49;;;;;;;5.60;4.95;;;;;;;;;;12979337;22;20007;-79
2022/10/05 12:13:00;;;;;;;5.40;4.68;;;;;;;;;;12982159;22;20023;-76
2022/10/05 12:18:12;;;;;;;4.68;4.28;;;;;;;;;;12996854;22;20024;-80
2022/10/05 12:23:26;;;;;;;5.88;4.90;;;;;;;;;;12969513;22;20730;-78
2022/10/05 12:28:33;;;;;;;4.93;4.00;;;;;;;;;;12978394;22;20102;-80
2022/10/05 12:33:37;;;;;;;5.25;4.47;;;;;;;;;;12979040;22;20437;-77
2022/10/05 12:39:04;;;;;;;5.53;4.18;;;;;;;;;;12960767;22;20084;-78
2022/10/05 12:44:10;;;;;;;3.60;3.10;;;;;;;;;;13000531;22;20043;-78
2022/10/05 12:49:21;;;;;;;4.20;3.67;;;;;;;;;;12964238;22;20491;-79
2022/10/05 12:54:33;;;;;;;4.13;3.72;;;;;;;;;;12998105;22;20010;-78
2022/10/05 12:59:53;;;;;;;5.27;3.53;;;;;;;;;;12993985;22;20059;-77
2022/10/05 13:05:02;;;;;;;3.55;3.05;;;;;;;;;;12981650;22;20016;-80
2022/10/05 13:10:23;;;;;;;4.70;3.30;;;;;;;;;;12925548;22;20518;-80
2022/10/05 13:15:29;;;;;;;4.43;3.00;;;;;;;;;;12977854;22;20018;-79
2022/10/05 13:20:47;;;;;;;3.33;3.03;;;;;;;;;;12981229;22;20012;-80
2022/10/05 13:26:06;;;;;;;3.25;2.95;;;;;;;;;;12956220;22;20011;-81
2022/10/05 13:31:19;;;;;;;4.85;3.40;;;;;;;;;;12969846;22;20012;-80
2022/10/05 13:36:37;;;;;;;4.65;3.10;;;;;;;;;;13002105;22;20011;-82
2022/10/05 13:41:53;;;;;;;3.33;2.60;;;;;;;;;;12975779;22;20030;-84
2022/10/05 13:47:21;;;;;;;3.25;2.95;;;;;;;;;;12971048;22;20016;-81
2022/10/05 13:52:41;;;;;;;3.90;3.10;;;;;;;;;;12952445;22;20004;-80
2022/10/05 13:57:51;;;;;;;3.17;2.88;;;;;;;;;;12981531;22;20063;-80
2022/10/05 14:02:53;;;;;;;3.95;3.65;;;;;;;;;;12998601;22;20000;-77
2022/10/05 14:07:57;;;;;;;4.07;3.45;;;;;;;;;;13042178;22;20041;-78
2022/10/05 14:12:58;;;;;;;3.47;3.17;;;;;;;;;;13016862;22;19992;-78
2022/10/05 14:18:24;;;;;;;3.53;2.85;;;;;;;;;;13017628;22;20043;-78
2022/10/05 14:23:26;;;;;;;3.65;2.80;;;;;;;;;;12984413;22;20019;-79
2022/10/05 14:28:29;;;;;;;3.47;2.72;;;;;;;;;;12952448;22;20050;-79
2022/10/05 14:33:31;;;;;;;4.40;3.88;;;;;;;;;;12962885;22;20488;-78
2022/10/05 14:38:35;;;;;;;3.90;2.85;;;;;;;;;;12961606;22;20333;-80
2022/10/05 14:43:36;;;;;;;3.42;2.90;;;;;;;;;;12992912;22;20014;-80
2022/10/05 14:48:42;;;;;;;3.25;2.95;;;;;;;;;;12987089;22;20020;-79
2022/10/05 14:53:53;;;;;;;3.38;3.08;;;;;;;;;;12982962;22;20325;-78
2022/10/05 14:58:58;;;;;;;3.63;2.80;;;;;;;;;;12953407;22;20015;-78
2022/10/05 15:04:17;;;;;;;3.15;2.67;;;;;;;;;;12983647;22;20254;-79
2022/10/05 15:09:23;;;;;;;2.95;2.75;;;;;;;;;;12983365;22;20138;-80
2022/10/05 15:14:30;;;;;;;3.33;2.80;;;;;;;;;;12978700;22;20047;-78
2022/10/05 15:19:47;;;;;;;3.88;3.30;;;;;;;;;;12952233;22;20466;-79
2022/10/05 15:24:56;;;;;;;3.08;2.78;;;;;;;;;;12980755;22;20050;-79
2022/10/05 15:30:03;;;;;;;2.70;2.50;;;;;;;;;;12953758;22;20020;-78
2022/10/05 15:35:22;;;;;;;4.07;2.63;;;;;;;;;;12982642;22;20077;-79
2022/10/05 15:40:32;;;;;;;2.85;2.60;;;;;;;;;;12953790;22;20686;-79
2022/10/05 15:45:36;;;;;;;3.38;2.95;;;;;;;;;;12951056;22;20023;-79
2022/10/05 15:50:46;;;;;;;3.10;2.80;;;;;;;;;;12984336;22;20035;-80
2022/10/05 15:56:07;;;;;;;2.50;2.30;;;;;;;;;;12956683;22;20015;-78
2022/10/05 16:01:14;;;;;;;3.05;2.65;;;;;;;;;;12985146;22;20019;-78
2022/10/05 16:11:44;;;;;;;3.80;3.30;;;;;;;;;;12981886;22;20315;-79
2022/10/05 16:17:03;;;;;;;5.18;3.55;;;;;;;;;;13000462;22;20022;-79
2022/10/05 16:22:06;;;;;;;4.80;3.20;;;;;;;;;;12964424;22;20208;-79
2022/10/05 16:27:15;;;;;;;3.92;3.00;;;;;;;;;;12967733;22;20071;-81
2022/10/05 16:32:18;;;;;;;3.70;3.30;;;;;;;;;;13013620;22;19991;-79
2022/10/05 16:37:27;;;;;;;4.43;3.10;;;;;;;;;;13017290;22;20012;-79
2022/10/05 16:42:46;;;;;;;5.97;3.35;;;;;;;;;;13044910;22;19998;-79
2022/10/05 16:48:00;;;;;;;4.03;3.45;;;;;;;;;;12985337;22;20086;-78
2022/10/05 16:53:11;;;;;;;4.63;3.80;;;;;;;;;;12960473;22;20011;-80
2022/10/05 16:58:25;;;;;;;4.53;3.80;;;;;;;;;;12987180;22;20027;-77
2022/10/05 17:03:56;;;;;;;5.35;4.82;;;;;;;;;;13000479;22;20094;-78
2022/10/05 17:09:13;;;;;;;5.65;4.50;;;;;;;;;;12952581;22;20019;-78
2022/10/05 17:14:34;;;;;;;5.55;3.88;;;;;;;;;;13005363;22;20015;-78
2022/10/05 17:19:56;;;;;;;5.85;4.38;;;;;;;;;;12963009;22;20023;-78
2022/10/05 17:25:07;;;;;;;5.65;4.38;;;;;;;;;;12935000;22;20004;-78
2022/10/05 17:30:23;;;;;;;6.38;4.30;;;;;;;;;;12954000;22;20016;-79
2022/10/05 17:35:44;;;;;;;4.75;4.07;;;;;;;;;;12978213;22;20086;-79
2022/10/05 17:41:05;;;;;;;6.97;4.82;;;;;;;;;;12980590;22;20046;-78
2022/10/05 17:46:11;;;;;;;6.70;4.70;;;;;;;;;;12952757;22;20065;-82
2022/10/05 17:56:54;;;;;;;7.18;4.97;;;;;;;;;;12981716;22;20050;-80
2022/10/05 18:02:13;;;;;;;6.95;5.18;;;;;;;;;;12979873;22;20020;-78
2022/10/05 18:07:22;;;;;;;7.55;5.40;;;;;;;;;;12954515;22;20051;-78
2022/10/05 18:12:39;;;;;;;8.88;5.80;;;;;;;;;;12982661;22;20058;-81
2022/10/05 18:18:30;;;;;;;8.13;5.22;;;;;;;;;;12997528;22;20028;-79
2022/10/05 18:23:22;;;;;;;9.00;6.25;;;;;;;;;;12984857;22;20018;-79
2022/10/05 18:28:45;;;;;;;8.45;5.70;;;;;;;;;;12958404;22;20016;-78
2022/10/05 18:33:49;;;;;;;8.10;5.75;;;;;;;;;;12989074;22;20012;-84
2022/10/05 18:39:05;;;;;;;9.43;7.18;;;;;;;;;;12996978;22;20053;-83
2022/10/05 18:44:11;;;;;;;8.57;6.63;;;;;;;;;;13030643;22;20023;-81
2022/10/05 18:49:47;;;;;;;6.20;5.60;;;;;;;;;;12966533;22;20699;-80
2022/10/05 18:55:12;;;;;;;6.13;5.28;;;;;;;;;;12684660;23;20028;-81
2022/10/05 19:00:18;;;;;;;6.50;5.63;;;;;;;;;;12972013;22;20027;-79
2022/10/05 19:05:38;;;;;;;6.63;5.55;;;;;;;;;;13043765;22;20026;-78
2022/10/05 19:11:03;;;;;;;5.78;5.05;;;;;;;;;;13044669;22;20063;-80
2022/10/05 19:16:28;;;;;;;6.80;5.50;;;;;;;;;;13037380;22;20023;-79
2022/10/05 19:22:07;;;;;;;6.32;5.47;;;;;;;;;;13024580;22;20363;-78
2022/10/05 19:27:31;;;;;;;9.00;6.32;;;;;;;;;;12991780;22;20018;-75
2022/10/05 19:32:52;;;;;;;7.88;5.82;;;;;;;;;;12955725;22;20065;-78
2022/10/05 19:38:18;;;;;;;7.65;6.22;;;;;;;;;;12892234;22;20448;-77
2022/10/05 19:43:41;;;;;;;10.15;6.85;;;;;;;;;;12983076;22;20536;-81
2022/10/05 19:48:45;;;;;;;7.00;6.30;;;;;;;;;;12985321;22;20007;-79
2022/10/05 19:53:48;;;;;;;10.73;6.78;;;;;;;;;;12980794;22;20084;-79
2022/10/05 19:58:49;;;;;;;7.28;5.65;;;;;;;;;;12983060;22;20382;-76
2022/10/05 20:03:50;;;;;;;8.30;6.90;;;;;;;;;;12956964;22;20015;-77
2022/10/05 20:09:00;;;;;;;10.05;7.88;;;;;;;;;;12957477;22;20024;-77
2022/10/05 20:14:02;;;;;;;9.68;7.20;;;;;;;;;;12984745;22;20016;-75
2022/10/05 20:24:49;;;;;;;8.07;7.28;;;;;;;;;;12983332;22;20011;-77
2022/10/05 20:29:50;;;;;;;10.75;7.95;;;;;;;;;;12952720;22;20081;-77
2022/10/05 20:34:55;;;;;;;10.05;7.93;;;;;;;;;;12955801;22;20011;-76
2022/10/05 20:39:55;;;;;;;11.90;8.45;;;;;;;;;;12930383;22;20153;-77
2022/10/05 20:44:57;;;;;;;10.20;8.10;;;;;;;;;;12985429;22;20034;-77
2022/10/05 20:49:58;;;;;;;11.27;8.65;;;;;;;;;;12980170;22;20352;-76
2022/10/05 20:55:00;;;;;;;10.83;8.80;;;;;;;;;;12981526;22;20507;-78
2022/10/05 21:00:03;;;;;;;11.15;8.07;;;;;;;;;;12979989;22;20031;-75
2022/10/05 21:05:03;;;;;;;12.27;8.85;;;;;;;;;;12953461;22;20012;-78
2022/10/05 21:10:05;;;;;;;10.13;8.23;;;;;;;;;;12956352;22;20568;-78
2022/10/05 21:15:09;;;;;;;10.98;9.38;;;;;;;;;;12957815;22;20085;-78
2022/10/05 21:20:11;;;;;;;11.02;8.80;;;;;;;;;;12980792;22;20102;-78
2022/10/05 21:25:13;;;;;;;10.75;8.32;;;;;;;;;;12933241;22;20019;-77
2022/10/05 21:30:14;;;;;;;10.77;7.50;;;;;;;;;;13029528;22;20023;-79
2022/10/05 21:35:14;;;;;;;8.63;7.68;;;;;;;;;;13018017;22;20003;-75
2022/10/05 21:40:15;;;;;;;9.25;7.50;;;;;;;;;;13048620;22;20000;-77
2022/10/05 21:45:16;;;;;;;9.55;7.95;;;;;;;;;;13001609;22;20008;-78
2022/10/05 21:50:16;;;;;;;9.57;8.55;;;;;;;;;;12987883;22;20007;-76
2022/10/05 21:55:17;;;;;;;10.65;8.32;;;;;;;;;;12983010;22;20086;-78
2022/10/05 22:00:18;;;;;;;8.75;7.85;;;;;;;;;;12958004;22;20027;-77
2022/10/05 22:05:19;;;;;;;10.32;7.97;;;;;;;;;;12958086;22;20459;-77
2022/10/05 22:10:21;;;;;;;7.93;7.13;;;;;;;;;;12990932;22;20060;-79
2022/10/05 22:15:21;;;;;;;7.90;7.10;;;;;;;;;;12966822;22;20047;-78
2022/10/05 22:20:25;;;;;;;8.77;7.10;;;;;;;;;;12972705;22;20372;-79
2022/10/05 22:25:27;;;;;;;7.90;7.10;;;;;;;;;;12999824;22;20015;-81
2022/10/05 22:30:28;;;;;;;11.60;8.07;;;;;;;;;;12968859;22;20039;-77
2022/10/05 22:35:30;;;;;;;9.43;7.65;;;;;;;;;;12965605;22;20011;-77
2022/10/05 22:40:34;;;;;;;;;;;;;;;;;;13001223;22;20023;-76
2022/10/05 22:45:34;;;;;;;9.23;7.78;;;;;;;;;;13024130;22;19922;-75
2022/10/05 22:50:37;;;;;;;8.38;7.18;;;;;;;;;;13021954;22;20073;-76
2022/10/05 22:55:38;;;;;;;8.18;6.63;;;;;;;;;;12961697;22;20063;-78
2022/10/05 23:00:39;;;;;;;6.95;6.30;;;;;;;;;;12956162;22;20047;-76
2022/10/05 23:05:39;;;;;;;7.78;6.32;;;;;;;;;;12953798;22;20017;-76
2022/10/05 23:10:40;;;;;;;6.83;5.90;;;;;;;;;;12980867;22;20003;-75
2022/10/05 23:15:41;;;;;;;8.52;6.40;;;;;;;;;;12952235;22;20258;-77
2022/10/05 23:20:41;;;;;;;8.65;6.82;;;;;;;;;;12980477;22;20046;-76
2022/10/05 23:25:42;;;;;;;8.97;7.00;;;;;;;;;;12928249;22;20057;-75
2022/10/05 23:30:44;;;;;;;8.48;7.57;;;;;;;;;;12978379;22;21063;-74
2022/10/05 23:35:44;;;;;;;8.38;6.97;;;;;;;;;;12979945;22;20004;-75
2022/10/05 23:40:45;;;;;;;7.37;6.50;;;;;;;;;;12979929;22;20019;-75
2022/10/05 23:45:45;;;;;;;7.70;6.97;;;;;;;;;;12993418;22;20715;-74
2022/10/05 23:50:46;;;;;;;9.50;7.40;;;;;;;;;;12981207;22;20020;-77
2022/10/05 23:55:50;;;;;;;9.65;7.60;;;;;;;;;;12980579;22;20012;-75
